Time;durP1;ratioP1;P1;durP2;ratioP2;P2;SDS_P1;SDS_P2;PMS_P1;PMS_P2;Temp;Humidity;BMP_temperature;BMP_pressure;BME280_temperature;BME280_humidity;BME280_pressure;Samples;Min_cycle;Max_cycle;Signal;HPM_P1;HPM_P2
2022/07/03 00:00:38;;;;;;;11.25;5.32;;;;;;;;;;4359048;32;20241;-90
2022/07/03 00:03:04;;;;;;;9.48;6.12;;;;;;;;;;4359059;32;20351;-91
2022/07/03 00:05:30;;;;;;;12.10;5.37;;;;;;;;;;4359045;32;20192;-89
2022/07/03 00:07:56;;;;;;;9.23;5.65;;;;;;;;;;4358988;32;20215;-90
2022/07/03 00:10:22;;;;;;;9.68;4.90;;;;;;;;;;4359034;32;20508;-91
2022/07/03 00:12:48;;;;;;;9.02;4.93;;;;;;;;;;4359021;32;20552;-86
2022/07/03 00:15:14;;;;;;;7.12;4.78;;;;;;;;;;4358852;32;20202;-87
2022/07/03 00:17:39;;;;;;;7.68;5.18;;;;;;;;;;4357432;32;20262;-89
2022/07/03 00:20:06;;;;;;;7.18;5.30;;;;;;;;;;4358849;32;20194;-89
2022/07/03 00:22:37;;;;;;;5.90;4.93;;;;;;;;;;4358834;32;20599;-91
2022/07/03 00:25:07;;;;;;;7.55;4.43;;;;;;;;;;4370162;32;20628;-91
2022/07/03 00:27:34;;;;;;;7.50;4.80;;;;;;;;;;4358731;32;20651;-88
2022/07/03 00:30:02;;;;;;;5.30;4.60;;;;;;;;;;4357312;32;20647;-91
2022/07/03 00:32:29;;;;;;;7.53;4.78;;;;;;;;;;4370061;32;20635;-87
2022/07/03 00:34:56;;;;;;;5.68;5.07;;;;;;;;;;4358624;32;20753;-86
2022/07/03 00:37:23;;;;;;;10.57;5.95;;;;;;;;;;4358718;32;20537;-86
2022/07/03 00:39:49;;;;;;;5.10;4.60;;;;;;;;;;4369911;32;20548;-86
2022/07/03 00:42:16;;;;;;;11.05;5.28;;;;;;;;;;4358532;33;20718;-86
2022/07/03 00:44:53;;;;;;;9.30;5.50;;;;;;;;;;4358535;33;20592;-87
2022/07/03 00:47:21;;;;;;;6.28;4.80;;;;;;;;;;4357404;33;20735;-86
2022/07/03 00:49:50;;;;;;;8.38;5.20;;;;;;;;;;4358414;32;20316;-85
2022/07/03 00:52:18;;;;;;;6.28;4.80;;;;;;;;;;4360172;32;20578;-86
2022/07/03 00:54:50;;;;;;;6.47;5.53;;;;;;;;;;4361480;32;20771;-87
2022/07/03 00:57:19;;;;;;;7.25;5.22;;;;;;;;;;4361540;32;20681;-88
2022/07/03 00:59:44;;;;;;;7.72;5.50;;;;;;;;;;4361445;32;20695;-86
2022/07/03 01:02:58;;;;;;;14.93;5.18;;;;;;;;;;4361516;32;20221;-86
2022/07/03 01:05:34;;;;;;;7.55;5.82;;;;;;;;;;4352100;32;20934;-86
2022/07/03 01:08:22;;;;;;;9.07;5.20;;;;;;;;;;4361482;32;20643;-91
2022/07/03 01:11:06;;;;;;;6.45;4.95;;;;;;;;;;4361580;32;20584;-85
2022/07/03 01:13:50;;;;;;;7.28;5.22;;;;;;;;;;4361328;32;20616;-86
2022/07/03 01:16:37;;;;;;;7.72;4.80;;;;;;;;;;4360931;32;20698;-87
2022/07/03 01:19:30;;;;;;;8.48;5.75;;;;;;;;;;4372358;32;20639;-86
2022/07/03 01:22:29;;;;;;;12.50;5.60;;;;;;;;;;4361040;32;20568;-86
2022/07/03 01:25:37;;;;;;;8.70;5.53;;;;;;;;;;4372163;32;20781;-85
2022/07/03 01:28:16;;;;;;;5.90;4.43;;;;;;;;;;4361001;32;20670;-87
2022/07/03 01:30:53;;;;;;;6.95;5.28;;;;;;;;;;4361206;32;20678;-86
2022/07/03 01:33:23;;;;;;;5.57;4.75;;;;;;;;;;4360038;32;20217;-89
2022/07/03 01:35:56;;;;;;;5.62;5.00;;;;;;;;;;4361008;32;20631;-87
2022/07/03 01:38:22;;;;;;;9.75;5.30;;;;;;;;;;4360934;32;20568;-86
2022/07/03 01:40:49;;;;;;;8.02;5.07;;;;;;;;;;4372283;32;20203;-86
2022/07/03 01:43:15;;;;;;;5.25;4.78;;;;;;;;;;4360724;32;20595;-86
2022/07/03 01:45:47;;;;;;;10.05;4.55;;;;;;;;;;4360926;32;20595;-86
2022/07/03 01:48:13;;;;;;;7.72;4.45;;;;;;;;;;4359972;32;20619;-86
2022/07/03 01:50:41;;;;;;;5.75;5.15;;;;;;;;;;4360993;32;20521;-90
2022/07/03 01:53:08;;;;;;;7.15;4.87;;;;;;;;;;4360732;32;20577;-90
2022/07/03 01:55:37;;;;;;;6.97;4.30;;;;;;;;;;4360657;32;20653;-86
2022/07/03 01:58:03;;;;;;;8.23;4.75;;;;;;;;;;4360429;32;20617;-85
2022/07/03 02:00:29;;;;;;;8.18;5.25;;;;;;;;;;4360961;32;20191;-82
2022/07/03 02:03:02;;;;;;;5.95;4.90;;;;;;;;;;4359874;32;20691;-86
2022/07/03 02:05:32;;;;;;;5.72;4.75;;;;;;;;;;4360735;32;20592;-86
2022/07/03 02:08:25;;;;;;;6.35;4.60;;;;;;;;;;4360582;32;20654;-86
2022/07/03 02:10:57;;;;;;;11.82;4.78;;;;;;;;;;4360151;32;20642;-86
2022/07/03 02:13:25;;;;;;;5.62;4.57;;;;;;;;;;4360523;32;20682;-86
2022/07/03 02:15:54;;;;;;;8.05;5.32;;;;;;;;;;4360407;32;20591;-86
2022/07/03 02:18:33;;;;;;;6.03;4.93;;;;;;;;;;4360216;32;20578;-86
2022/07/03 02:21:16;;;;;;;11.27;5.20;;;;;;;;;;4371630;32;20731;-86
2022/07/03 02:24:02;;;;;;;8.98;5.57;;;;;;;;;;4360192;32;20574;-85
2022/07/03 02:26:33;;;;;;;6.20;5.07;;;;;;;;;;4360714;32;20582;-86
2022/07/03 02:29:03;;;;;;;6.62;5.53;;;;;;;;;;4360177;32;20636;-86
2022/07/03 02:31:42;;;;;;;6.00;5.37;;;;;;;;;;4360367;32;20587;-86
2022/07/03 02:34:16;;;;;;;6.45;5.43;;;;;;;;;;4360272;32;20587;-85
2022/07/03 02:36:47;;;;;;;7.53;5.55;;;;;;;;;;4360045;32;20654;-85
2022/07/03 02:39:21;;;;;;;6.93;5.53;;;;;;;;;;4360328;32;20631;-86
2022/07/03 02:41:53;;;;;;;12.37;5.60;;;;;;;;;;4359997;32;20616;-87
2022/07/03 02:44:27;;;;;;;7.40;5.55;;;;;;;;;;4360321;32;20561;-86
2022/07/03 02:47:21;;;;;;;6.95;4.72;;;;;;;;;;4359991;32;20651;-88
2022/07/03 02:49:58;;;;;;;5.32;4.45;;;;;;;;;;4360078;32;20524;-86
2022/07/03 02:52:30;;;;;;;6.37;4.75;;;;;;;;;;4360091;32;20552;-86
2022/07/03 02:55:02;;;;;;;8.23;5.28;;;;;;;;;;4359645;32;20563;-86
2022/07/03 02:57:38;;;;;;;11.93;5.28;;;;;;;;;;4359830;32;20614;-86
2022/07/03 03:00:06;;;;;;;5.82;4.80;;;;;;;;;;4359739;32;20630;-92
2022/07/03 03:02:47;;;;;;;9.88;6.10;;;;;;;;;;4359679;32;20569;-86
2022/07/03 03:05:34;;;;;;;6.55;5.12;;;;;;;;;;4360150;32;20611;-89
2022/07/03 03:08:15;;;;;;;11.60;5.85;;;;;;;;;;4359831;32;20593;-89
2022/07/03 03:10:42;;;;;;;8.95;5.97;;;;;;;;;;4359715;32;20719;-89
2022/07/03 03:13:10;;;;;;;8.32;4.50;;;;;;;;;;4359402;32;20463;-89
2022/07/03 03:15:38;;;;;;;6.55;4.75;;;;;;;;;;4359246;32;20640;-89
2022/07/03 03:18:11;;;;;;;11.88;6.30;;;;;;;;;;4359742;32;20655;-90
2022/07/03 03:20:39;;;;;;;8.50;5.20;;;;;;;;;;4359830;32;20627;-90
2022/07/03 03:23:23;;;;;;;8.80;5.93;;;;;;;;;;4359254;32;20604;-85
2022/07/03 03:25:52;;;;;;;8.40;5.65;;;;;;;;;;4359371;32;20521;-86
2022/07/03 03:28:19;;;;;;;14.05;5.50;;;;;;;;;;4359326;32;20569;-86
2022/07/03 03:30:44;;;;;;;8.32;5.82;;;;;;;;;;4359407;32;20715;-90
2022/07/03 03:33:12;;;;;;;10.75;6.15;;;;;;;;;;4370809;32;20287;-86
2022/07/03 03:35:38;;;;;;;8.45;6.50;;;;;;;;;;4359126;32;20521;-86
2022/07/03 03:38:05;;;;;;;10.45;5.37;;;;;;;;;;4359531;32;20520;-89
2022/07/03 03:40:35;;;;;;;7.57;5.68;;;;;;;;;;4370798;32;20580;-91
2022/07/03 03:43:04;;;;;;;5.50;4.70;;;;;;;;;;4359498;32;20619;-90
2022/07/03 03:45:37;;;;;;;10.43;6.93;;;;;;;;;;4359821;32;20535;-89
2022/07/03 03:48:04;;;;;;;11.98;6.07;;;;;;;;;;4359465;32;20631;-86
2022/07/03 03:50:29;;;;;;;8.95;5.82;;;;;;;;;;4359088;32;20671;-86
2022/07/03 03:52:55;;;;;;;7.53;6.25;;;;;;;;;;4359104;32;20401;-89
2022/07/03 03:55:21;;;;;;;8.40;5.85;;;;;;;;;;4359288;32;20241;-89
2022/07/03 03:57:47;;;;;;;14.95;6.07;;;;;;;;;;4357725;32;20595;-86
2022/07/03 04:00:13;;;;;;;10.02;6.60;;;;;;;;;;4359126;32;20290;-85
2022/07/03 04:02:40;;;;;;;10.90;6.20;;;;;;;;;;4358722;32;20578;-84
2022/07/03 04:05:06;;;;;;;12.23;6.72;;;;;;;;;;4370118;32;20556;-88
2022/07/03 04:07:32;;;;;;;12.35;5.62;;;;;;;;;;4359387;32;20635;-89
2022/07/03 04:09:58;;;;;;;8.93;5.65;;;;;;;;;;4359012;32;20195;-88
2022/07/03 04:12:24;;;;;;;10.77;6.53;;;;;;;;;;4358980;32;20528;-89
2022/07/03 04:14:51;;;;;;;9.52;6.47;;;;;;;;;;4357681;32;20214;-89
2022/07/03 04:17:17;;;;;;;8.10;6.15;;;;;;;;;;4358013;32;20265;-88
2022/07/03 04:19:43;;;;;;;14.32;6.15;;;;;;;;;;4359001;32;20548;-91
2022/07/03 04:22:09;;;;;;;7.43;6.62;;;;;;;;;;4359056;32;20345;-93
2022/07/03 04:24:38;;;;;;;10.05;6.20;;;;;;;;;;4359007;32;20572;-89
2022/07/03 04:27:04;;;;;;;8.45;6.12;;;;;;;;;;4358805;32;20630;-89
2022/07/03 04:29:30;;;;;;;9.98;6.00;;;;;;;;;;4358882;32;20494;-89
2022/07/03 04:31:56;;;;;;;7.60;5.85;;;;;;;;;;4358470;32;20677;-89
2022/07/03 04:34:22;;;;;;;11.75;6.62;;;;;;;;;;4359261;32;20212;-92
2022/07/03 04:36:49;;;;;;;7.53;6.07;;;;;;;;;;4357593;33;20222;-91
2022/07/03 04:39:14;;;;;;;9.32;5.62;;;;;;;;;;4358599;32;20530;-88
2022/07/03 04:41:40;;;;;;;11.73;6.20;;;;;;;;;;4370033;32;20362;-88
2022/07/03 04:44:07;;;;;;;8.25;6.55;;;;;;;;;;4358539;32;20244;-88
2022/07/03 04:46:33;;;;;;;10.52;7.05;;;;;;;;;;4370594;32;20553;-88
2022/07/03 04:48:58;;;;;;;9.68;6.47;;;;;;;;;;4359033;33;20302;-88
2022/07/03 04:51:25;;;;;;;14.18;7.53;;;;;;;;;;4357364;33;20309;-89
2022/07/03 04:53:51;;;;;;;13.48;6.82;;;;;;;;;;4356889;33;20572;-88
2022/07/03 04:56:17;;;;;;;15.45;7.35;;;;;;;;;;4370050;32;20190;-93
2022/07/03 04:58:42;;;;;;;9.10;7.05;;;;;;;;;;4370040;32;20254;-88
2022/07/03 05:01:08;;;;;;;10.65;7.25;;;;;;;;;;4358370;32;20214;-88
2022/07/03 05:03:34;;;;;;;9.43;7.40;;;;;;;;;;4358661;32;20378;-88
2022/07/03 05:06:01;;;;;;;7.82;6.90;;;;;;;;;;4358693;32;20294;-88
2022/07/03 05:08:27;;;;;;;13.77;6.62;;;;;;;;;;4357450;33;20529;-88
2022/07/03 05:10:53;;;;;;;9.85;7.12;;;;;;;;;;4358567;32;20601;-88
2022/07/03 05:13:19;;;;;;;11.90;6.80;;;;;;;;;;4369933;32;20604;-87
2022/07/03 05:15:45;;;;;;;8.98;6.68;;;;;;;;;;4344522;33;20289;-87
2022/07/03 05:18:11;;;;;;;8.60;6.80;;;;;;;;;;4357212;33;20241;-88
2022/07/03 05:20:38;;;;;;;11.77;6.55;;;;;;;;;;4358371;32;20305;-88
2022/07/03 05:23:04;;;;;;;10.65;7.30;;;;;;;;;;4358247;32;20631;-90
2022/07/03 05:25:31;;;;;;;9.20;6.90;;;;;;;;;;4357566;32;20562;-91
2022/07/03 05:27:58;;;;;;;14.15;7.68;;;;;;;;;;4357710;32;20765;-91
2022/07/03 05:30:25;;;;;;;13.45;7.60;;;;;;;;;;4358705;32;20683;-92
2022/07/03 05:32:51;;;;;;;7.90;6.80;;;;;;;;;;4357516;32;20604;-90
2022/07/03 05:35:20;;;;;;;14.07;8.18;;;;;;;;;;4359112;32;20643;-92
2022/07/03 05:37:47;;;;;;;9.25;7.32;;;;;;;;;;4359633;32;20650;-88
2022/07/03 05:40:15;;;;;;;9.27;6.75;;;;;;;;;;4361226;32;20631;-89
2022/07/03 05:42:41;;;;;;;11.38;6.43;;;;;;;;;;4362480;32;20210;-91
2022/07/03 05:45:08;;;;;;;10.77;6.45;;;;;;;;;;4370139;32;20239;-92
2022/07/03 05:47:34;;;;;;;8.45;6.70;;;;;;;;;;4369519;32;20714;-89
2022/07/03 05:50:00;;;;;;;18.10;7.25;;;;;;;;;;4363024;32;20593;-89
2022/07/03 05:52:26;;;;;;;10.90;7.20;;;;;;;;;;4362234;32;20226;-89
2022/07/03 05:54:51;;;;;;;11.50;7.60;;;;;;;;;;4362988;32;20313;-88
2022/07/03 05:57:17;;;;;;;11.68;6.62;;;;;;;;;;4363263;32;20227;-88
2022/07/03 05:59:43;;;;;;;10.43;7.07;;;;;;;;;;4364352;32;20223;-89
2022/07/03 06:02:10;;;;;;;12.27;7.20;;;;;;;;;;4363327;32;20218;-90
2022/07/03 06:04:36;;;;;;;10.20;7.50;;;;;;;;;;4361982;32;20563;-88
2022/07/03 06:07:02;;;;;;;7.60;6.65;;;;;;;;;;4367617;32;20325;-91
2022/07/03 06:09:28;;;;;;;11.82;6.80;;;;;;;;;;4372867;32;20321;-90
2022/07/03 06:11:53;;;;;;;10.07;7.70;;;;;;;;;;4373145;32;20269;-89
2022/07/03 06:14:19;;;;;;;9.07;6.68;;;;;;;;;;4371930;32;20268;-90
2022/07/03 06:16:45;;;;;;;8.10;6.80;;;;;;;;;;4371715;32;20294;-91
2022/07/03 06:19:11;;;;;;;8.13;6.57;;;;;;;;;;4371063;32;20279;-93
2022/07/03 06:21:36;;;;;;;11.20;7.90;;;;;;;;;;4367970;32;20210;-87
2022/07/03 06:24:02;;;;;;;10.40;7.18;;;;;;;;;;4362610;32;20317;-89
2022/07/03 06:26:31;;;;;;;11.73;6.80;;;;;;;;;;4363673;32;20219;-88
2022/07/03 06:28:56;;;;;;;12.55;7.47;;;;;;;;;;4374241;32;20549;-90
2022/07/03 06:31:22;;;;;;;10.93;7.10;;;;;;;;;;4361410;32;20261;-89
2022/07/03 06:33:48;;;;;;;11.73;6.90;;;;;;;;;;4360696;32;20253;-92
2022/07/03 06:36:13;;;;;;;10.93;7.25;;;;;;;;;;4360632;32;20241;-91
2022/07/03 06:38:39;;;;;;;11.38;7.20;;;;;;;;;;4360408;32;20225;-91
2022/07/03 06:41:04;;;;;;;12.57;7.45;;;;;;;;;;4360250;32;20312;-93
2022/07/03 06:43:30;;;;;;;15.57;8.18;;;;;;;;;;4371891;32;20249;-92
2022/07/03 06:45:56;;;;;;;9.48;7.70;;;;;;;;;;4360537;32;20187;-88
2022/07/03 06:48:21;;;;;;;13.02;7.05;;;;;;;;;;4360631;32;20190;-89
2022/07/03 06:50:47;;;;;;;14.23;7.93;;;;;;;;;;4360420;32;20186;-89
2022/07/03 06:53:14;;;;;;;12.30;8.73;;;;;;;;;;4360240;32;20214;-91
2022/07/03 06:55:40;;;;;;;12.00;7.65;;;;;;;;;;4360695;32;20600;-92
2022/07/03 06:58:06;;;;;;;9.35;7.43;;;;;;;;;;4360298;32;20687;-91
2022/07/03 07:00:32;;;;;;;12.37;7.82;;;;;;;;;;4360775;32;20245;-91
2022/07/03 07:02:57;;;;;;;15.65;7.87;;;;;;;;;;4360163;32;20272;-93
2022/07/03 07:05:23;;;;;;;11.93;7.12;;;;;;;;;;4360162;32;20194;-88
2022/07/03 07:07:49;;;;;;;12.30;7.82;;;;;;;;;;4359905;32;20211;-88
2022/07/03 07:10:15;;;;;;;7.93;6.53;;;;;;;;;;4359787;32;20698;-88
2022/07/03 07:12:41;;;;;;;8.85;7.70;;;;;;;;;;4359845;32;20210;-87
2022/07/03 07:15:07;;;;;;;11.07;7.82;;;;;;;;;;4358761;32;20241;-89
2022/07/03 07:17:33;;;;;;;13.30;8.38;;;;;;;;;;4358566;32;20673;-88
2022/07/03 07:19:59;;;;;;;10.93;7.93;;;;;;;;;;4371093;32;20218;-89
2022/07/03 07:22:25;;;;;;;19.80;8.48;;;;;;;;;;4359559;32;20396;-88
2022/07/03 07:24:51;;;;;;;21.75;8.82;;;;;;;;;;4359680;32;20372;-88
2022/07/03 07:27:17;;;;;;;10.93;8.70;;;;;;;;;;4359623;32;20616;-89
2022/07/03 07:29:43;;;;;;;10.07;7.53;;;;;;;;;;4370728;32;20245;-88
2022/07/03 07:32:08;;;;;;;10.18;7.43;;;;;;;;;;4359568;32;20241;-88
2022/07/03 07:34:34;;;;;;;8.13;7.00;;;;;;;;;;4359731;32;20336;-89
2022/07/03 07:37:00;;;;;;;7.72;7.03;;;;;;;;;;4370845;32;20218;-88
2022/07/03 07:39:25;;;;;;;7.68;6.78;;;;;;;;;;4359545;32;20222;-88
2022/07/03 07:41:51;;;;;;;7.10;6.43;;;;;;;;;;4359317;32;20231;-89
2022/07/03 07:44:17;;;;;;;8.85;6.87;;;;;;;;;;4359508;32;20203;-89
2022/07/03 07:46:43;;;;;;;20.48;8.30;;;;;;;;;;4359731;32;20210;-89
2022/07/03 07:49:08;;;;;;;13.40;8.95;;;;;;;;;;4359539;32;20245;-88
2022/07/03 07:51:34;;;;;;;12.40;7.30;;;;;;;;;;4359617;32;20336;-89
2022/07/03 07:54:00;;;;;;;11.60;7.47;;;;;;;;;;4358437;32;20241;-91
2022/07/03 07:56:27;;;;;;;8.63;7.70;;;;;;;;;;4359689;32;20241;-92
2022/07/03 07:58:53;;;;;;;9.00;8.05;;;;;;;;;;4359675;32;20584;-89
2022/07/03 08:06:48;;;;;;;11.90;7.95;;;;;;;;;;4359484;32;20225;-90
2022/07/03 08:09:14;;;;;;;8.40;6.60;;;;;;;;;;4359309;32;20262;-92
2022/07/03 08:11:40;;;;;;;12.50;7.90;;;;;;;;;;4359272;32;20262;-90
2022/07/03 08:14:07;;;;;;;9.05;7.47;;;;;;;;;;4359055;32;20191;-90
2022/07/03 08:16:35;;;;;;;9.90;7.03;;;;;;;;;;4359141;32;20534;-90
2022/07/03 08:19:01;;;;;;;10.65;6.87;;;;;;;;;;4359207;32;20600;-89
2022/07/03 08:21:27;;;;;;;12.00;6.85;;;;;;;;;;4359242;32;20608;-89
2022/07/03 08:23:53;;;;;;;11.50;7.82;;;;;;;;;;4359228;32;20282;-89
2022/07/03 08:26:19;;;;;;;12.23;7.57;;;;;;;;;;4358862;32;20529;-89
2022/07/03 08:28:46;;;;;;;7.68;6.85;;;;;;;;;;4359233;32;20384;-89
2022/07/03 08:31:11;;;;;;;11.50;7.87;;;;;;;;;;4370147;32;20521;-89
2022/07/03 08:33:37;;;;;;;12.18;8.32;;;;;;;;;;4359034;32;20195;-89
2022/07/03 08:36:05;;;;;;;10.10;7.15;;;;;;;;;;4359149;32;20194;-89
2022/07/03 08:38:33;;;;;;;12.55;7.55;;;;;;;;;;4359131;32;20596;-89
2022/07/03 08:41:04;;;;;;;13.60;8.00;;;;;;;;;;4358840;32;20588;-88
2022/07/03 08:43:30;;;;;;;9.00;7.62;;;;;;;;;;4359257;33;20565;-89
2022/07/03 08:45:58;;;;;;;9.75;7.75;;;;;;;;;;4359176;33;20646;-89
2022/07/03 08:48:25;;;;;;;13.50;7.43;;;;;;;;;;4358594;32;20589;-90
2022/07/03 08:50:53;;;;;;;8.27;7.10;;;;;;;;;;4357554;33;20593;-88
2022/07/03 08:53:19;;;;;;;12.70;7.55;;;;;;;;;;4358986;32;20609;-89
2022/07/03 08:55:47;;;;;;;13.77;7.45;;;;;;;;;;4358702;32;20762;-94
2022/07/03 08:58:19;;;;;;;12.18;7.07;;;;;;;;;;4359039;32;20541;-92
2022/07/03 09:00:45;;;;;;;10.77;8.18;;;;;;;;;;4359054;32;20462;-92
2022/07/03 09:03:12;;;;;;;12.25;6.93;;;;;;;;;;4358919;32;20679;-92
2022/07/03 09:05:39;;;;;;;12.82;7.32;;;;;;;;;;4359016;33;20532;-93
2022/07/03 09:08:10;;;;;;;10.80;7.22;;;;;;;;;;4370691;32;20635;-93
2022/07/03 09:10:36;;;;;;;7.85;6.37;;;;;;;;;;4358843;32;20600;-93
2022/07/03 09:13:03;;;;;;;13.48;7.68;;;;;;;;;;4360310;32;20715;-94
2022/07/03 09:15:28;;;;;;;9.93;7.65;;;;;;;;;;4361908;32;20603;-93
2022/07/03 09:17:59;;;;;;;11.57;6.87;;;;;;;;;;4361572;32;20214;-93
2022/07/03 09:20:37;;;;;;;11.57;7.18;;;;;;;;;;4372803;32;20800;-94
2022/07/03 09:23:16;;;;;;;11.60;7.57;;;;;;;;;;4361650;32;20626;-92
2022/07/03 09:25:58;;;;;;;8.50;6.97;;;;;;;;;;4362024;32;20607;-87
2022/07/03 09:28:45;;;;;;;7.25;6.12;;;;;;;;;;4372347;32;20630;-88
2022/07/03 09:31:27;;;;;;;10.25;6.78;;;;;;;;;;4361577;32;20599;-87
2022/07/03 09:33:58;;;;;;;11.98;6.68;;;;;;;;;;4361862;32;20557;-88
2022/07/03 09:36:53;;;;;;;7.72;6.93;;;;;;;;;;4372791;32;20649;-88
2022/07/03 09:39:31;;;;;;;7.57;5.80;;;;;;;;;;4361222;32;20496;-88
2022/07/03 09:42:06;;;;;;;7.53;6.15;;;;;;;;;;4359930;32;20675;-88
2022/07/03 09:44:36;;;;;;;10.65;6.47;;;;;;;;;;4372281;32;20697;-89
2022/07/03 09:47:23;;;;;;;6.72;5.97;;;;;;;;;;4361343;32;20566;-88
2022/07/03 09:50:00;;;;;;;13.70;6.07;;;;;;;;;;4359493;32;20551;-88
2022/07/03 09:52:39;;;;;;;10.52;6.12;;;;;;;;;;4361146;32;20742;-87
2022/07/03 09:55:12;;;;;;;8.68;4.97;;;;;;;;;;4361140;32;20665;-87
2022/07/03 09:57:40;;;;;;;17.98;5.20;;;;;;;;;;4360988;32;20636;-88
2022/07/03 10:00:22;;;;;;;5.82;4.70;;;;;;;;;;4361069;32;20514;-87
2022/07/03 10:02:57;;;;;;;6.57;5.45;;;;;;;;;;4360994;32;20607;-89
2022/07/03 10:05:25;;;;;;;12.43;4.45;;;;;;;;;;4361360;32;20548;-88
2022/07/03 10:08:00;;;;;;;6.10;4.53;;;;;;;;;;4360953;32;20584;-92
2022/07/03 10:10:30;;;;;;;9.55;5.37;;;;;;;;;;4359884;32;20689;-88
2022/07/03 10:12:56;;;;;;;8.13;5.30;;;;;;;;;;4360624;32;20685;-89
2022/07/03 10:15:25;;;;;;;8.95;4.87;;;;;;;;;;4360988;32;20556;-89
2022/07/03 10:17:52;;;;;;;9.40;6.07;;;;;;;;;;4372008;32;20637;-89
2022/07/03 10:20:49;;;;;;;10.45;4.37;;;;;;;;;;4360773;32;20608;-88
2022/07/03 10:23:16;;;;;;;8.20;5.57;;;;;;;;;;4355571;32;20681;-87
2022/07/03 10:25:43;;;;;;;8.57;5.32;;;;;;;;;;4371842;32;20617;-88
2022/07/03 10:28:13;;;;;;;9.68;5.32;;;;;;;;;;4359251;32;20572;-89
2022/07/03 10:30:42;;;;;;;8.55;5.35;;;;;;;;;;4359434;32;20575;-88
2022/07/03 10:33:07;;;;;;;11.75;6.32;;;;;;;;;;4360297;32;20667;-88
2022/07/03 10:35:44;;;;;;;10.80;6.80;;;;;;;;;;4360212;32;20203;-88
2022/07/03 10:38:43;;;;;;;9.20;5.97;;;;;;;;;;4360181;32;20596;-88
2022/07/03 10:46:50;;;;;;;10.70;5.97;;;;;;;;;;4360450;32;20666;-88
2022/07/03 10:49:16;;;;;;;7.65;6.55;;;;;;;;;;4360362;32;20202;-88
2022/07/03 10:51:45;;;;;;;9.90;6.50;;;;;;;;;;4360440;32;20306;-88
2022/07/03 10:54:15;;;;;;;6.62;5.10;;;;;;;;;;4360303;32;20612;-89
2022/07/03 10:56:59;;;;;;;7.05;5.37;;;;;;;;;;4371546;32;20565;-91
2022/07/03 10:59:45;;;;;;;7.35;5.55;;;;;;;;;;4360131;32;20624;-91
2022/07/03 11:02:31;;;;;;;8.23;5.30;;;;;;;;;;4336954;32;20648;-91
2022/07/03 11:04:57;;;;;;;9.00;5.82;;;;;;;;;;4360242;32;20528;-91
2022/07/03 11:07:44;;;;;;;10.30;5.70;;;;;;;;;;4359946;32;20214;-91
2022/07/03 11:10:10;;;;;;;7.05;5.18;;;;;;;;;;4360835;32;20513;-91
2022/07/03 11:12:57;;;;;;;8.60;6.03;;;;;;;;;;4360301;32;20214;-89
2022/07/03 11:15:32;;;;;;;5.40;4.85;;;;;;;;;;4360277;32;20252;-89
2022/07/03 11:18:25;;;;;;;9.80;5.75;;;;;;;;;;4360313;32;20615;-89
2022/07/03 11:20:51;;;;;;;7.12;4.82;;;;;;;;;;4355649;32;20640;-88
2022/07/03 11:23:27;;;;;;;10.65;5.60;;;;;;;;;;4359874;32;20210;-88
2022/07/03 11:25:57;;;;;;;6.82;5.45;;;;;;;;;;4360180;32;20638;-88
2022/07/03 11:28:32;;;;;;;9.10;5.80;;;;;;;;;;4359897;32;20586;-88
2022/07/03 11:31:19;;;;;;;5.57;5.05;;;;;;;;;;4370946;32;20599;-88
2022/07/03 11:33:56;;;;;;;8.85;4.95;;;;;;;;;;4359734;32;20807;-88
2022/07/03 11:36:21;;;;;;;12.82;5.50;;;;;;;;;;4359667;32;20805;-88
2022/07/03 11:38:50;;;;;;;5.60;4.95;;;;;;;;;;4359728;32;20219;-88
2022/07/03 11:41:17;;;;;;;5.80;5.20;;;;;;;;;;4360086;32;20632;-88
2022/07/03 11:44:03;;;;;;;5.95;5.32;;;;;;;;;;4359685;32;20560;-88
2022/07/03 11:46:34;;;;;;;13.65;6.22;;;;;;;;;;4359956;32;20517;-88
2022/07/03 11:49:06;;;;;;;13.57;6.35;;;;;;;;;;4359310;32;20564;-87
2022/07/03 11:51:33;;;;;;;6.07;5.18;;;;;;;;;;4359650;32;20560;-88
2022/07/03 11:53:58;;;;;;;6.20;5.05;;;;;;;;;;4359507;32;20669;-88
2022/07/03 11:56:24;;;;;;;5.90;5.30;;;;;;;;;;4359704;32;20190;-88
2022/07/03 11:58:52;;;;;;;5.93;5.32;;;;;;;;;;4359353;32;20222;-88
2022/07/03 12:01:24;;;;;;;7.12;5.85;;;;;;;;;;4359473;32;20677;-88
2022/07/03 12:04:01;;;;;;;9.30;5.45;;;;;;;;;;4359325;32;20583;-90
2022/07/03 12:06:33;;;;;;;5.80;4.87;;;;;;;;;;4359732;32;20481;-90
2022/07/03 12:08:59;;;;;;;8.68;5.57;;;;;;;;;;4359165;32;20593;-87
2022/07/03 12:11:25;;;;;;;6.87;5.43;;;;;;;;;;4359451;32;20343;-87
2022/07/03 12:13:52;;;;;;;11.68;5.37;;;;;;;;;;4359018;32;20281;-87
2022/07/03 12:16:18;;;;;;;6.20;5.60;;;;;;;;;;4359176;32;20601;-88
2022/07/03 12:18:54;;;;;;;8.13;5.15;;;;;;;;;;4358676;32;20215;-87
2022/07/03 12:21:22;;;;;;;8.88;5.90;;;;;;;;;;4358839;32;20642;-89
2022/07/03 12:23:53;;;;;;;5.43;4.82;;;;;;;;;;4358979;32;20536;-89
2022/07/03 12:26:33;;;;;;;6.80;5.43;;;;;;;;;;4359052;32;20509;-87
2022/07/03 12:29:01;;;;;;;8.88;5.68;;;;;;;;;;4358890;32;20648;-88
2022/07/03 12:31:28;;;;;;;9.23;5.55;;;;;;;;;;4359123;32;20592;-89
2022/07/03 12:37:15;;;;;;;8.48;5.75;;;;;;;;;;4359069;33;20312;-87
2022/07/03 12:39:42;;;;;;;7.12;5.55;;;;;;;;;;4358884;33;20195;-87
2022/07/03 12:42:21;;;;;;;8.80;5.03;;;;;;;;;;4358722;32;20629;-87
2022/07/03 12:45:04;;;;;;;7.87;5.82;;;;;;;;;;4358940;32;20572;-88
2022/07/03 12:47:31;;;;;;;11.88;5.35;;;;;;;;;;4360773;32;20612;-88
2022/07/03 12:50:02;;;;;;;11.48;5.45;;;;;;;;;;4361839;32;20594;-87
2022/07/03 12:52:29;;;;;;;12.75;5.25;;;;;;;;;;4362095;32;20584;-84
2022/07/03 12:54:56;;;;;;;6.28;5.65;;;;;;;;;;4361798;32;20663;-85
2022/07/03 13:00:12;;;;;;;5.43;4.93;;;;;;;;;;4361823;32;20218;-85
2022/07/03 13:02:40;;;;;;;5.95;5.35;;;;;;;;;;4360621;32;20572;-85
2022/07/03 13:05:24;;;;;;;5.55;5.05;;;;;;;;;;4361435;32;20579;-85
2022/07/03 13:07:51;;;;;;;6.55;5.60;;;;;;;;;;4373404;32;20616;-84
2022/07/03 13:10:20;;;;;;;10.70;5.00;;;;;;;;;;4361546;32;20619;-84
2022/07/03 13:12:57;;;;;;;13.07;5.53;;;;;;;;;;4361375;32;20741;-85
2022/07/03 13:15:28;;;;;;;6.43;4.93;;;;;;;;;;4361751;32;20536;-84
2022/07/03 13:17:54;;;;;;;10.35;5.43;;;;;;;;;;4361544;32;20616;-83
2022/07/03 13:20:32;;;;;;;6.87;5.47;;;;;;;;;;4361812;32;20210;-81
2022/07/03 13:23:00;;;;;;;5.65;5.10;;;;;;;;;;4362007;32;20585;-83
2022/07/03 13:25:27;;;;;;;13.68;6.07;;;;;;;;;;4361375;32;20545;-84
2022/07/03 13:28:09;;;;;;;10.48;6.00;;;;;;;;;;4372410;32;20584;-84
2022/07/03 13:30:36;;;;;;;9.65;6.18;;;;;;;;;;4361459;32;20618;-85
2022/07/03 13:33:03;;;;;;;9.85;5.25;;;;;;;;;;4361798;32;20564;-85
2022/07/03 13:35:29;;;;;;;10.52;4.78;;;;;;;;;;4361255;32;20666;-85
2022/07/03 13:37:55;;;;;;;5.82;4.68;;;;;;;;;;4361261;32;20604;-85
2022/07/03 13:40:21;;;;;;;8.55;4.68;;;;;;;;;;4360933;32;20608;-86
2022/07/03 13:42:47;;;;;;;11.40;4.62;;;;;;;;;;4361242;32;20666;-86
2022/07/03 13:45:14;;;;;;;5.78;4.97;;;;;;;;;;4361015;32;20634;-83
2022/07/03 13:47:39;;;;;;;6.90;4.55;;;;;;;;;;4360885;32;20553;-83
2022/07/03 13:50:06;;;;;;;9.18;4.57;;;;;;;;;;4361361;32;20285;-83
2022/07/03 13:52:32;;;;;;;9.30;6.75;;;;;;;;;;4360975;32;20616;-83
2022/07/03 13:54:58;;;;;;;9.77;5.93;;;;;;;;;;4360197;32;20513;-83
2022/07/03 13:57:23;;;;;;;10.13;7.40;;;;;;;;;;4360879;32;20555;-83
2022/07/03 13:59:49;;;;;;;8.55;7.30;;;;;;;;;;4360595;32;20277;-84
2022/07/03 14:02:15;;;;;;;14.85;7.80;;;;;;;;;;4361141;32;20296;-81
2022/07/03 14:04:41;;;;;;;7.60;6.35;;;;;;;;;;4361014;32;20485;-84
2022/07/03 14:07:07;;;;;;;15.38;8.10;;;;;;;;;;4372106;32;20560;-83
2022/07/03 14:09:33;;;;;;;9.27;6.50;;;;;;;;;;4360827;32;20191;-83
2022/07/03 14:11:59;;;;;;;7.53;6.60;;;;;;;;;;4360957;32;20642;-84
2022/07/03 14:14:25;;;;;;;7.93;7.18;;;;;;;;;;4361010;32;20416;-85
2022/07/03 14:16:51;;;;;;;13.60;8.65;;;;;;;;;;4360660;32;20268;-83
2022/07/03 14:19:16;;;;;;;8.30;7.18;;;;;;;;;;4360578;32;20191;-83
2022/07/03 14:21:43;;;;;;;10.48;7.60;;;;;;;;;;4360710;32;20214;-85
2022/07/03 14:24:09;;;;;;;9.07;6.62;;;;;;;;;;4360792;32;20544;-86
